sensor_id;sensor_type;location;lat;lon;timestamp;temperature;humidity
14182;DHT22;7171;50.936;6.764;2023-04-22T00:00:13;9.00;99.90
14182;DHT22;7171;50.936;6.764;2023-04-22T00:02:40;10.90;99.90
14182;DHT22;7171;50.936;6.764;2023-04-22T00:05:07;11.00;99.90
14182;DHT22;7171;50.936;6.764;2023-04-22T00:07:37;10.90;99.90
14182;DHT22;7171;50.936;6.764;2023-04-22T00:10:05;10.90;99.90
14182;DHT22;7171;50.936;6.764;2023-04-22T00:12:32;11.00;99.90
14182;DHT22;7171;50.936;6.764;2023-04-22T00:15:01;11.00;99.90
14182;DHT22;7171;50.936;6.764;2023-04-22T00:17:28;11.00;99.90
14182;DHT22;7171;50.936;6.764;2023-04-22T00:19:54;11.00;99.90
14182;DHT22;7171;50.936;6.764;2023-04-22T00:22:21;11.00;99.90
14182;DHT22;7171;50.936;6.764;2023-04-22T00:24:48;11.10;99.90
14182;DHT22;7171;50.936;6.764;2023-04-22T00:27:15;11.10;99.90
14182;DHT22;7171;50.936;6.764;2023-04-22T00:29:42;11.20;99.90
14182;DHT22;7171;50.936;6.764;2023-04-22T00:32:10;11.10;99.90
14182;DHT22;7171;50.936;6.764;2023-04-22T00:34:36;11.10;99.90
14182;DHT22;7171;50.936;6.764;2023-04-22T00:37:03;11.10;99.90
14182;DHT22;7171;50.936;6.764;2023-04-22T00:39:30;11.10;99.90
14182;DHT22;7171;50.936;6.764;2023-04-22T00:41:57;11.10;99.90
14182;DHT22;7171;50.936;6.764;2023-04-22T00:44:26;11.10;99.90
14182;DHT22;7171;50.936;6.764;2023-04-22T00:46:54;11.20;99.90
14182;DHT22;7171;50.936;6.764;2023-04-22T00:49:22;11.20;99.90
14182;DHT22;7171;50.936;6.764;2023-04-22T00:51:50;11.20;99.90
14182;DHT22;7171;50.936;6.764;2023-04-22T00:54:17;11.20;99.90
14182;DHT22;7171;50.936;6.764;2023-04-22T00:56:44;11.20;99.90
14182;DHT22;7171;50.936;6.764;2023-04-22T00:59:11;11.30;99.90
14182;DHT22;7171;50.936;6.764;2023-04-22T01:01:38;11.20;99.90
14182;DHT22;7171;50.936;6.764;2023-04-22T01:04:05;11.30;99.90
14182;DHT22;7171;50.936;6.764;2023-04-22T01:06:34;11.40;99.90
14182;DHT22;7171;50.936;6.764;2023-04-22T01:09:02;11.30;99.90
14182;DHT22;7171;50.936;6.764;2023-04-22T01:11:29;11.30;99.90
14182;DHT22;7171;50.936;6.764;2023-04-22T01:13:56;11.30;99.90
14182;DHT22;7171;50.936;6.764;2023-04-22T01:16:23;11.30;99.90
14182;DHT22;7171;50.936;6.764;2023-04-22T01:18:53;11.30;99.90
14182;DHT22;7171;50.936;6.764;2023-04-22T01:21:20;11.40;99.90
14182;DHT22;7171;50.936;6.764;2023-04-22T01:23:48;11.30;99.90
14182;DHT22;7171;50.936;6.764;2023-04-22T01:26:15;11.30;99.90
14182;DHT22;7171;50.936;6.764;2023-04-22T01:28:42;11.30;99.90
14182;DHT22;7171;50.936;6.764;2023-04-22T01:31:09;11.30;99.90
14182;DHT22;7171;50.936;6.764;2023-04-22T01:33:36;11.30;99.90
14182;DHT22;7171;50.936;6.764;2023-04-22T01:36:03;11.30;99.90
14182;DHT22;7171;50.936;6.764;2023-04-22T01:38:30;11.30;99.90
14182;DHT22;7171;50.936;6.764;2023-04-22T01:40:59;11.30;99.90
14182;DHT22;7171;50.936;6.764;2023-04-22T01:43:27;11.30;99.90
14182;DHT22;7171;50.936;6.764;2023-04-22T01:45:55;11.40;99.90
14182;DHT22;7171;50.936;6.764;2023-04-22T01:48:22;11.40;99.90
14182;DHT22;7171;50.936;6.764;2023-04-22T01:50:49;11.50;99.90
14182;DHT22;7171;50.936;6.764;2023-04-22T01:53:15;11.40;99.90
14182;DHT22;7171;50.936;6.764;2023-04-22T01:55:42;11.40;99.90
14182;DHT22;7171;50.936;6.764;2023-04-22T01:58:10;11.40;99.90
14182;DHT22;7171;50.936;6.764;2023-04-22T02:00:37;11.40;99.90
14182;DHT22;7171;50.936;6.764;2023-04-22T02:03:04;11.40;99.90
14182;DHT22;7171;50.936;6.764;2023-04-22T02:05:31;11.40;99.90
14182;DHT22;7171;50.936;6.764;2023-04-22T02:07:58;11.40;99.90
14182;DHT22;7171;50.936;6.764;2023-04-22T02:10:24;11.40;99.90
14182;DHT22;7171;50.936;6.764;2023-04-22T02:12:51;11.50;99.90
14182;DHT22;7171;50.936;6.764;2023-04-22T02:15:19;11.40;99.90
14182;DHT22;7171;50.936;6.764;2023-04-22T02:17:47;11.50;99.90
14182;DHT22;7171;50.936;6.764;2023-04-22T02:20:15;11.50;99.90
14182;DHT22;7171;50.936;6.764;2023-04-22T02:22:42;11.50;99.90
14182;DHT22;7171;50.936;6.764;2023-04-22T02:25:10;11.50;99.90
14182;DHT22;7171;50.936;6.764;2023-04-22T02:27:36;11.50;99.90
14182;DHT22;7171;50.936;6.764;2023-04-22T02:30:04;11.30;99.90
14182;DHT22;7171;50.936;6.764;2023-04-22T02:32:33;11.40;99.90
14182;DHT22;7171;50.936;6.764;2023-04-22T02:35:01;11.40;99.90
14182;DHT22;7171;50.936;6.764;2023-04-22T02:37:28;11.40;99.90
14182;DHT22;7171;50.936;6.764;2023-04-22T02:39:55;11.50;99.90
14182;DHT22;7171;50.936;6.764;2023-04-22T02:42:22;11.40;99.90
14182;DHT22;7171;50.936;6.764;2023-04-22T02:44:49;11.40;99.90
14182;DHT22;7171;50.936;6.764;2023-04-22T02:47:16;11.40;99.90
14182;DHT22;7171;50.936;6.764;2023-04-22T02:49:44;11.40;99.90
14182;DHT22;7171;50.936;6.764;2023-04-22T02:52:10;11.40;99.90
14182;DHT22;7171;50.936;6.764;2023-04-22T02:54:37;11.40;99.90
14182;DHT22;7171;50.936;6.764;2023-04-22T02:57:04;11.30;99.90
14182;DHT22;7171;50.936;6.764;2023-04-22T02:59:31;11.40;99.90
14182;DHT22;7171;50.936;6.764;2023-04-22T03:01:58;11.40;99.90
14182;DHT22;7171;50.936;6.764;2023-04-22T03:04:24;11.50;99.90
14182;DHT22;7171;50.936;6.764;2023-04-22T03:06:52;11.40;99.90
14182;DHT22;7171;50.936;6.764;2023-04-22T03:09:20;11.40;99.90
14182;DHT22;7171;50.936;6.764;2023-04-22T03:11:47;11.40;99.90
14182;DHT22;7171;50.936;6.764;2023-04-22T03:14:14;11.40;99.90
14182;DHT22;7171;50.936;6.764;2023-04-22T03:16:40;11.40;99.90
14182;DHT22;7171;50.936;6.764;2023-04-22T03:19:07;11.40;99.90
14182;DHT22;7171;50.936;6.764;2023-04-22T03:21:34;11.40;99.90
14182;DHT22;7171;50.936;6.764;2023-04-22T03:24:02;11.40;99.90
14182;DHT22;7171;50.936;6.764;2023-04-22T03:26:29;11.40;99.90
14182;DHT22;7171;50.936;6.764;2023-04-22T03:28:56;11.40;99.90
14182;DHT22;7171;50.936;6.764;2023-04-22T03:31:22;11.50;99.90
14182;DHT22;7171;50.936;6.764;2023-04-22T03:33:49;11.50;99.90
14182;DHT22;7171;50.936;6.764;2023-04-22T03:36:16;11.50;99.90
14182;DHT22;7171;50.936;6.764;2023-04-22T03:42:06;11.50;99.90
14182;DHT22;7171;50.936;6.764;2023-04-22T03:44:33;11.50;99.90
14182;DHT22;7171;50.936;6.764;2023-04-22T03:47:00;11.50;99.90
14182;DHT22;7171;50.936;6.764;2023-04-22T03:49:27;11.60;99.90
14182;DHT22;7171;50.936;6.764;2023-04-22T03:51:53;11.60;99.90
14182;DHT22;7171;50.936;6.764;2023-04-22T03:54:20;11.60;99.90
14182;DHT22;7171;50.936;6.764;2023-04-22T03:56:47;11.60;99.90
14182;DHT22;7171;50.936;6.764;2023-04-22T03:59:16;11.70;99.90
14182;DHT22;7171;50.936;6.764;2023-04-22T04:01:45;11.70;99.90
14182;DHT22;7171;50.936;6.764;2023-04-22T04:04:13;11.60;99.90
14182;DHT22;7171;50.936;6.764;2023-04-22T04:06:39;11.70;99.90
14182;DHT22;7171;50.936;6.764;2023-04-22T04:09:06;11.60;99.90
14182;DHT22;7171;50.936;6.764;2023-04-22T04:11:33;11.70;99.90
14182;DHT22;7171;50.936;6.764;2023-04-22T04:13:59;11.70;99.90
14182;DHT22;7171;50.936;6.764;2023-04-22T04:16:29;11.70;99.90
14182;DHT22;7171;50.936;6.764;2023-04-22T04:18:56;11.70;99.90
14182;DHT22;7171;50.936;6.764;2023-04-22T04:21:22;11.70;99.90
14182;DHT22;7171;50.936;6.764;2023-04-22T04:23:49;11.70;99.90
14182;DHT22;7171;50.936;6.764;2023-04-22T04:26:16;11.70;99.90
14182;DHT22;7171;50.936;6.764;2023-04-22T04:28:42;11.70;99.90
14182;DHT22;7171;50.936;6.764;2023-04-22T04:31:09;11.80;99.90
14182;DHT22;7171;50.936;6.764;2023-04-22T04:33:37;11.80;99.90
14182;DHT22;7171;50.936;6.764;2023-04-22T04:36:05;11.70;99.90
14182;DHT22;7171;50.936;6.764;2023-04-22T04:38:33;11.80;99.90
14182;DHT22;7171;50.936;6.764;2023-04-22T04:40:59;11.90;99.90
14182;DHT22;7171;50.936;6.764;2023-04-22T04:43:27;11.80;99.90
14182;DHT22;7171;50.936;6.764;2023-04-22T04:45:53;11.80;99.90
14182;DHT22;7171;50.936;6.764;2023-04-22T04:48:20;11.80;99.90
14182;DHT22;7171;50.936;6.764;2023-04-22T04:50:50;11.70;99.90
14182;DHT22;7171;50.936;6.764;2023-04-22T04:53:20;11.80;99.90
14182;DHT22;7171;50.936;6.764;2023-04-22T04:55:47;11.90;99.90
14182;DHT22;7171;50.936;6.764;2023-04-22T04:58:13;11.80;99.90
14182;DHT22;7171;50.936;6.764;2023-04-22T05:00:40;11.90;99.90
14182;DHT22;7171;50.936;6.764;2023-04-22T05:03:07;11.80;99.90
14182;DHT22;7171;50.936;6.764;2023-04-22T05:05:34;11.80;99.90
14182;DHT22;7171;50.936;6.764;2023-04-22T05:08:02;11.80;99.90
14182;DHT22;7171;50.936;6.764;2023-04-22T05:10:29;11.80;99.90
14182;DHT22;7171;50.936;6.764;2023-04-22T05:12:56;11.80;99.90
14182;DHT22;7171;50.936;6.764;2023-04-22T05:15:22;11.80;99.90
14182;DHT22;7171;50.936;6.764;2023-04-22T05:17:49;11.80;99.90
14182;DHT22;7171;50.936;6.764;2023-04-22T05:20:16;12.00;99.90
14182;DHT22;7171;50.936;6.764;2023-04-22T05:22:43;11.90;99.90
14182;DHT22;7171;50.936;6.764;2023-04-22T05:25:11;11.90;99.90
14182;DHT22;7171;50.936;6.764;2023-04-22T05:27:39;11.90;99.90
14182;DHT22;7171;50.936;6.764;2023-04-22T05:30:07;11.80;99.90
14182;DHT22;7171;50.936;6.764;2023-04-22T05:32:34;12.00;99.90
14182;DHT22;7171;50.936;6.764;2023-04-22T05:35:01;12.00;99.90
14182;DHT22;7171;50.936;6.764;2023-04-22T05:37:28;12.00;99.90
14182;DHT22;7171;50.936;6.764;2023-04-22T05:39:55;12.00;99.90
14182;DHT22;7171;50.936;6.764;2023-04-22T05:42:23;12.10;99.90
14182;DHT22;7171;50.936;6.764;2023-04-22T05:44:50;12.10;99.90
14182;DHT22;7171;50.936;6.764;2023-04-22T05:47:16;12.20;99.90
14182;DHT22;7171;50.936;6.764;2023-04-22T05:49:43;12.20;99.90
14182;DHT22;7171;50.936;6.764;2023-04-22T05:52:10;12.20;99.90
14182;DHT22;7171;50.936;6.764;2023-04-22T05:54:36;12.20;99.90
14182;DHT22;7171;50.936;6.764;2023-04-22T05:57:03;12.20;99.90
14182;DHT22;7171;50.936;6.764;2023-04-22T05:59:31;12.30;99.90
14182;DHT22;7171;50.936;6.764;2023-04-22T06:01:58;12.30;99.90
14182;DHT22;7171;50.936;6.764;2023-04-22T06:04:25;12.20;99.90
14182;DHT22;7171;50.936;6.764;2023-04-22T06:06:52;12.30;99.90
14182;DHT22;7171;50.936;6.764;2023-04-22T06:09:19;12.40;99.90
14182;DHT22;7171;50.936;6.764;2023-04-22T06:11:46;12.40;99.90
14182;DHT22;7171;50.936;6.764;2023-04-22T06:14:13;12.40;99.90
14182;DHT22;7171;50.936;6.764;2023-04-22T06:16:41;12.50;99.90
14182;DHT22;7171;50.936;6.764;2023-04-22T06:19:08;12.50;99.90
14182;DHT22;7171;50.936;6.764;2023-04-22T06:21:35;12.50;99.90
14182;DHT22;7171;50.936;6.764;2023-04-22T06:24:04;12.50;99.90
14182;DHT22;7171;50.936;6.764;2023-04-22T06:26:31;12.50;99.90
14182;DHT22;7171;50.936;6.764;2023-04-22T06:28:58;12.60;99.90
14182;DHT22;7171;50.936;6.764;2023-04-22T06:31:25;12.60;99.90
14182;DHT22;7171;50.936;6.764;2023-04-22T06:33:53;12.60;99.90
14182;DHT22;7171;50.936;6.764;2023-04-22T06:36:20;12.70;99.90
14182;DHT22;7171;50.936;6.764;2023-04-22T06:38:47;12.80;99.90
14182;DHT22;7171;50.936;6.764;2023-04-22T06:41:13;12.80;99.90
14182;DHT22;7171;50.936;6.764;2023-04-22T06:43:40;12.90;99.90
14182;DHT22;7171;50.936;6.764;2023-04-22T06:46:07;13.00;99.90
14182;DHT22;7171;50.936;6.764;2023-04-22T06:48:34;13.00;99.90
14182;DHT22;7171;50.936;6.764;2023-04-22T06:51:02;13.10;99.90
14182;DHT22;7171;50.936;6.764;2023-04-22T06:53:29;13.20;99.90
14182;DHT22;7171;50.936;6.764;2023-04-22T06:55:56;13.20;99.90
14182;DHT22;7171;50.936;6.764;2023-04-22T06:58:22;13.30;99.90
14182;DHT22;7171;50.936;6.764;2023-04-22T07:00:49;13.30;99.90
14182;DHT22;7171;50.936;6.764;2023-04-22T07:03:16;13.40;99.90
14182;DHT22;7171;50.936;6.764;2023-04-22T07:05:42;13.40;99.90
14182;DHT22;7171;50.936;6.764;2023-04-22T07:08:11;13.50;99.90
14182;DHT22;7171;50.936;6.764;2023-04-22T07:10:37;13.50;99.90
14182;DHT22;7171;50.936;6.764;2023-04-22T07:13:04;13.50;99.90
14182;DHT22;7171;50.936;6.764;2023-04-22T07:15:31;13.60;99.90
14182;DHT22;7171;50.936;6.764;2023-04-22T07:17:58;13.70;99.90
14182;DHT22;7171;50.936;6.764;2023-04-22T07:20:25;13.70;99.90
14182;DHT22;7171;50.936;6.764;2023-04-22T07:22:51;13.80;99.90
14182;DHT22;7171;50.936;6.764;2023-04-22T07:25:19;13.90;99.90
14182;DHT22;7171;50.936;6.764;2023-04-22T07:27:46;14.00;99.90
14182;DHT22;7171;50.936;6.764;2023-04-22T07:30:13;14.10;99.90
14182;DHT22;7171;50.936;6.764;2023-04-22T07:32:40;14.10;99.90
14182;DHT22;7171;50.936;6.764;2023-04-22T07:35:07;14.20;99.90
14182;DHT22;7171;50.936;6.764;2023-04-22T07:37:34;14.30;99.90
14182;DHT22;7171;50.936;6.764;2023-04-22T07:40:01;14.40;99.90
14182;DHT22;7171;50.936;6.764;2023-04-22T07:42:29;14.50;99.90
14182;DHT22;7171;50.936;6.764;2023-04-22T07:44:56;14.60;99.90
14182;DHT22;7171;50.936;6.764;2023-04-22T07:47:22;14.80;99.90
14182;DHT22;7171;50.936;6.764;2023-04-22T07:49:49;14.80;99.90
14182;DHT22;7171;50.936;6.764;2023-04-22T07:52:16;14.90;99.90
14182;DHT22;7171;50.936;6.764;2023-04-22T07:54:44;15.00;99.90
14182;DHT22;7171;50.936;6.764;2023-04-22T07:57:10;15.20;99.90
14182;DHT22;7171;50.936;6.764;2023-04-22T07:59:39;15.30;99.90
14182;DHT22;7171;50.936;6.764;2023-04-22T08:02:05;15.40;99.90
14182;DHT22;7171;50.936;6.764;2023-04-22T08:04:32;15.50;99.90
14182;DHT22;7171;50.936;6.764;2023-04-22T08:06:59;15.70;99.90
14182;DHT22;7171;50.936;6.764;2023-04-22T08:09:27;15.80;99.90
14182;DHT22;7171;50.936;6.764;2023-04-22T08:11:54;15.90;99.90
14182;DHT22;7171;50.936;6.764;2023-04-22T08:14:22;16.00;99.90
14182;DHT22;7171;50.936;6.764;2023-04-22T08:16:51;16.10;99.90
14182;DHT22;7171;50.936;6.764;2023-04-22T08:19:18;16.30;99.90
14182;DHT22;7171;50.936;6.764;2023-04-22T08:21:48;16.60;99.90
14182;DHT22;7171;50.936;6.764;2023-04-22T08:24:16;16.50;99.90
14182;DHT22;7171;50.936;6.764;2023-04-22T08:26:42;16.60;99.90
14182;DHT22;7171;50.936;6.764;2023-04-22T08:29:09;16.70;99.90
14182;DHT22;7171;50.936;6.764;2023-04-22T08:31:36;16.80;99.90
14182;DHT22;7171;50.936;6.764;2023-04-22T08:34:04;16.90;99.90
14182;DHT22;7171;50.936;6.764;2023-04-22T08:36:31;17.00;99.90
14182;DHT22;7171;50.936;6.764;2023-04-22T08:38:58;17.10;99.90
14182;DHT22;7171;50.936;6.764;2023-04-22T08:41:25;17.10;99.90
14182;DHT22;7171;50.936;6.764;2023-04-22T08:43:52;17.20;99.90
14182;DHT22;7171;50.936;6.764;2023-04-22T08:46:19;17.30;99.90
14182;DHT22;7171;50.936;6.764;2023-04-22T08:48:49;17.40;99.90
14182;DHT22;7171;50.936;6.764;2023-04-22T08:51:17;17.50;99.90
14182;DHT22;7171;50.936;6.764;2023-04-22T08:53:44;17.60;99.90
14182;DHT22;7171;50.936;6.764;2023-04-22T08:56:12;17.70;99.90
14182;DHT22;7171;50.936;6.764;2023-04-22T08:58:40;17.80;99.90
14182;DHT22;7171;50.936;6.764;2023-04-22T09:01:07;18.00;99.90
14182;DHT22;7171;50.936;6.764;2023-04-22T09:03:35;18.10;99.90
14182;DHT22;7171;50.936;6.764;2023-04-22T09:06:05;18.10;99.90
14182;DHT22;7171;50.936;6.764;2023-04-22T09:08:33;18.20;99.90
14182;DHT22;7171;50.936;6.764;2023-04-22T09:11:02;18.30;99.90
14182;DHT22;7171;50.936;6.764;2023-04-22T09:13:29;18.40;99.90
14182;DHT22;7171;50.936;6.764;2023-04-22T09:15:55;18.60;99.90
14182;DHT22;7171;50.936;6.764;2023-04-22T09:18:22;18.60;99.90
14182;DHT22;7171;50.936;6.764;2023-04-22T09:20:54;18.70;99.90
14182;DHT22;7171;50.936;6.764;2023-04-22T09:23:21;18.90;99.90
14182;DHT22;7171;50.936;6.764;2023-04-22T09:25:49;18.90;99.90
14182;DHT22;7171;50.936;6.764;2023-04-22T09:28:17;19.10;99.90
14182;DHT22;7171;50.936;6.764;2023-04-22T09:30:45;19.20;99.90
14182;DHT22;7171;50.936;6.764;2023-04-22T09:33:12;19.20;99.90
14182;DHT22;7171;50.936;6.764;2023-04-22T09:35:41;19.30;99.90
14182;DHT22;7171;50.936;6.764;2023-04-22T09:38:09;19.40;99.90
14182;DHT22;7171;50.936;6.764;2023-04-22T09:40:41;19.50;99.90
14182;DHT22;7171;50.936;6.764;2023-04-22T09:43:10;19.50;99.90
14182;DHT22;7171;50.936;6.764;2023-04-22T09:45:38;19.60;99.90
14182;DHT22;7171;50.936;6.764;2023-04-22T09:48:07;19.70;99.90
14182;DHT22;7171;50.936;6.764;2023-04-22T09:50:34;19.70;99.90
14182;DHT22;7171;50.936;6.764;2023-04-22T09:53:04;19.80;99.90
14182;DHT22;7171;50.936;6.764;2023-04-22T09:55:33;19.80;99.90
14182;DHT22;7171;50.936;6.764;2023-04-22T09:58:05;19.90;99.90
14182;DHT22;7171;50.936;6.764;2023-04-22T10:03:03;20.10;99.90
14182;DHT22;7171;50.936;6.764;2023-04-22T10:05:30;20.10;99.90
14182;DHT22;7171;50.936;6.764;2023-04-22T10:07:58;20.20;99.90
14182;DHT22;7171;50.936;6.764;2023-04-22T10:10:25;20.30;99.90
14182;DHT22;7171;50.936;6.764;2023-04-22T10:12:53;20.30;99.90
14182;DHT22;7171;50.936;6.764;2023-04-22T10:15:20;20.30;99.90
14182;DHT22;7171;50.936;6.764;2023-04-22T10:17:49;20.30;99.90
14182;DHT22;7171;50.936;6.764;2023-04-22T10:20:19;20.20;99.90
14182;DHT22;7171;50.936;6.764;2023-04-22T10:22:46;20.20;99.90
14182;DHT22;7171;50.936;6.764;2023-04-22T10:25:20;20.20;99.90
14182;DHT22;7171;50.936;6.764;2023-04-22T10:27:52;20.20;99.90
14182;DHT22;7171;50.936;6.764;2023-04-22T10:30:26;20.20;99.90
14182;DHT22;7171;50.936;6.764;2023-04-22T10:32:54;20.30;99.90
14182;DHT22;7171;50.936;6.764;2023-04-22T10:35:26;20.40;99.90
14182;DHT22;7171;50.936;6.764;2023-04-22T10:37:53;20.40;99.90
14182;DHT22;7171;50.936;6.764;2023-04-22T10:40:20;20.50;99.90
14182;DHT22;7171;50.936;6.764;2023-04-22T10:42:50;20.60;99.90
14182;DHT22;7171;50.936;6.764;2023-04-22T10:45:17;20.60;99.90
14182;DHT22;7171;50.936;6.764;2023-04-22T10:47:44;20.60;99.90
14182;DHT22;7171;50.936;6.764;2023-04-22T10:50:21;20.70;99.90
14182;DHT22;7171;50.936;6.764;2023-04-22T10:52:50;20.70;99.90
14182;DHT22;7171;50.936;6.764;2023-04-22T10:55:18;20.70;99.90
14182;DHT22;7171;50.936;6.764;2023-04-22T10:57:47;20.60;99.90
14182;DHT22;7171;50.936;6.764;2023-04-22T11:00:33;20.60;99.90
14182;DHT22;7171;50.936;6.764;2023-04-22T11:03:11;20.50;99.90
14182;DHT22;7171;50.936;6.764;2023-04-22T11:05:40;20.40;99.90
14182;DHT22;7171;50.936;6.764;2023-04-22T11:08:13;20.40;99.90
14182;DHT22;7171;50.936;6.764;2023-04-22T11:10:42;20.50;99.90
14182;DHT22;7171;50.936;6.764;2023-04-22T11:13:11;20.50;99.90
14182;DHT22;7171;50.936;6.764;2023-04-22T11:15:39;20.50;99.90
14182;DHT22;7171;50.936;6.764;2023-04-22T11:18:13;20.60;99.90
14182;DHT22;7171;50.936;6.764;2023-04-22T11:20:42;20.70;99.90
14182;DHT22;7171;50.936;6.764;2023-04-22T11:23:09;20.80;99.90
14182;DHT22;7171;50.936;6.764;2023-04-22T11:25:36;20.90;99.90
14182;DHT22;7171;50.936;6.764;2023-04-22T11:28:02;21.00;99.90
14182;DHT22;7171;50.936;6.764;2023-04-22T11:30:30;21.00;99.90
14182;DHT22;7171;50.936;6.764;2023-04-22T11:32:58;21.10;99.90
14182;DHT22;7171;50.936;6.764;2023-04-22T11:35:28;21.10;99.90
14182;DHT22;7171;50.936;6.764;2023-04-22T11:37:57;21.20;99.90
14182;DHT22;7171;50.936;6.764;2023-04-22T11:40:27;21.20;99.90
14182;DHT22;7171;50.936;6.764;2023-04-22T11:42:54;21.20;99.90
14182;DHT22;7171;50.936;6.764;2023-04-22T11:45:22;21.20;99.90
14182;DHT22;7171;50.936;6.764;2023-04-22T11:47:50;21.20;99.90
14182;DHT22;7171;50.936;6.764;2023-04-22T11:50:19;21.30;99.90
14182;DHT22;7171;50.936;6.764;2023-04-22T11:52:48;21.30;99.90
14182;DHT22;7171;50.936;6.764;2023-04-22T11:55:19;21.30;99.90
14182;DHT22;7171;50.936;6.764;2023-04-22T11:57:52;21.20;99.90
14182;DHT22;7171;50.936;6.764;2023-04-22T12:00:19;21.20;99.90
14182;DHT22;7171;50.936;6.764;2023-04-22T12:02:57;21.20;99.90
14182;DHT22;7171;50.936;6.764;2023-04-22T12:05:39;21.20;99.90
14182;DHT22;7171;50.936;6.764;2023-04-22T12:08:08;21.20;99.90
14182;DHT22;7171;50.936;6.764;2023-04-22T12:10:40;21.10;99.90
14182;DHT22;7171;50.936;6.764;2023-04-22T12:13:07;21.10;99.90
14182;DHT22;7171;50.936;6.764;2023-04-22T12:15:42;21.10;99.90
14182;DHT22;7171;50.936;6.764;2023-04-22T12:18:09;21.10;99.90
14182;DHT22;7171;50.936;6.764;2023-04-22T12:20:38;21.10;99.90
14182;DHT22;7171;50.936;6.764;2023-04-22T12:23:11;21.10;99.90
14182;DHT22;7171;50.936;6.764;2023-04-22T12:25:39;21.10;99.90
14182;DHT22;7171;50.936;6.764;2023-04-22T12:28:06;21.10;99.90
14182;DHT22;7171;50.936;6.764;2023-04-22T12:30:33;21.10;99.90
14182;DHT22;7171;50.936;6.764;2023-04-22T12:32:59;21.10;99.90
14182;DHT22;7171;50.936;6.764;2023-04-22T12:35:26;21.10;99.90
14182;DHT22;7171;50.936;6.764;2023-04-22T12:37:53;21.10;99.90
14182;DHT22;7171;50.936;6.764;2023-04-22T12:40:20;21.10;99.90
14182;DHT22;7171;50.936;6.764;2023-04-22T12:42:48;21.10;99.90
14182;DHT22;7171;50.936;6.764;2023-04-22T12:45:14;21.00;99.90
14182;DHT22;7171;50.936;6.764;2023-04-22T12:47:41;21.00;99.90
14182;DHT22;7171;50.936;6.764;2023-04-22T12:50:09;21.00;99.90
14182;DHT22;7171;50.936;6.764;2023-04-22T12:52:36;21.00;99.90
14182;DHT22;7171;50.936;6.764;2023-04-22T12:55:03;21.00;99.90
14182;DHT22;7171;50.936;6.764;2023-04-22T12:57:30;20.90;99.90
14182;DHT22;7171;50.936;6.764;2023-04-22T12:59:58;20.80;99.90
14182;DHT22;7171;50.936;6.764;2023-04-22T13:02:25;20.70;99.90
14182;DHT22;7171;50.936;6.764;2023-04-22T13:04:52;20.70;99.90
14182;DHT22;7171;50.936;6.764;2023-04-22T13:07:18;20.60;99.90
14182;DHT22;7171;50.936;6.764;2023-04-22T13:09:45;20.50;99.90
14182;DHT22;7171;50.936;6.764;2023-04-22T13:12:12;20.50;99.90
14182;DHT22;7171;50.936;6.764;2023-04-22T13:14:39;20.30;99.90
14182;DHT22;7171;50.936;6.764;2023-04-22T13:17:07;20.30;99.90
14182;DHT22;7171;50.936;6.764;2023-04-22T13:19:34;20.20;99.90
14182;DHT22;7171;50.936;6.764;2023-04-22T13:22:01;20.10;99.90
14182;DHT22;7171;50.936;6.764;2023-04-22T13:24:28;20.00;99.90
14182;DHT22;7171;50.936;6.764;2023-04-22T13:26:55;19.90;99.90
14182;DHT22;7171;50.936;6.764;2023-04-22T13:29:22;19.90;99.90
14182;DHT22;7171;50.936;6.764;2023-04-22T13:31:48;19.80;99.90
14182;DHT22;7171;50.936;6.764;2023-04-22T13:34:17;19.80;99.90
14182;DHT22;7171;50.936;6.764;2023-04-22T13:36:43;19.70;99.90
14182;DHT22;7171;50.936;6.764;2023-04-22T13:39:12;19.70;99.90
14182;DHT22;7171;50.936;6.764;2023-04-22T13:41:38;19.60;99.90
14182;DHT22;7171;50.936;6.764;2023-04-22T13:44:05;19.60;99.90
14182;DHT22;7171;50.936;6.764;2023-04-22T13:46:32;19.50;99.90
14182;DHT22;7171;50.936;6.764;2023-04-22T13:48:59;19.50;99.90
14182;DHT22;7171;50.936;6.764;2023-04-22T13:51:27;19.50;99.90
14182;DHT22;7171;50.936;6.764;2023-04-22T13:53:53;19.50;99.90
14182;DHT22;7171;50.936;6.764;2023-04-22T13:56:20;19.40;99.90
14182;DHT22;7171;50.936;6.764;2023-04-22T13:58:47;19.40;99.90
14182;DHT22;7171;50.936;6.764;2023-04-22T14:01:14;19.40;99.90
14182;DHT22;7171;50.936;6.764;2023-04-22T14:03:41;19.40;99.90
14182;DHT22;7171;50.936;6.764;2023-04-22T14:06:08;19.40;99.90
14182;DHT22;7171;50.936;6.764;2023-04-22T14:08:37;19.30;99.90
14182;DHT22;7171;50.936;6.764;2023-04-22T14:11:06;19.30;99.90
14182;DHT22;7171;50.936;6.764;2023-04-22T14:13:33;19.30;99.90
14182;DHT22;7171;50.936;6.764;2023-04-22T14:16:01;19.30;99.90
14182;DHT22;7171;50.936;6.764;2023-04-22T14:18:28;19.30;99.90
14182;DHT22;7171;50.936;6.764;2023-04-22T14:20:55;19.30;99.90
14182;DHT22;7171;50.936;6.764;2023-04-22T14:23:22;19.30;99.90
14182;DHT22;7171;50.936;6.764;2023-04-22T14:25:50;19.30;99.90
14182;DHT22;7171;50.936;6.764;2023-04-22T14:28:17;19.20;99.90
14182;DHT22;7171;50.936;6.764;2023-04-22T14:30:44;19.20;99.90
14182;DHT22;7171;50.936;6.764;2023-04-22T14:33:10;19.20;99.90
14182;DHT22;7171;50.936;6.764;2023-04-22T14:35:37;19.20;99.90
14182;DHT22;7171;50.936;6.764;2023-04-22T14:38:06;19.10;99.90
14182;DHT22;7171;50.936;6.764;2023-04-22T14:40:34;19.10;99.90
14182;DHT22;7171;50.936;6.764;2023-04-22T14:43:04;19.10;99.90
14182;DHT22;7171;50.936;6.764;2023-04-22T14:45:31;19.10;99.90
14182;DHT22;7171;50.936;6.764;2023-04-22T14:47:58;19.10;99.90
14182;DHT22;7171;50.936;6.764;2023-04-22T14:50:25;19.00;99.90
14182;DHT22;7171;50.936;6.764;2023-04-22T14:52:52;19.00;99.90
14182;DHT22;7171;50.936;6.764;2023-04-22T14:55:19;18.90;99.90
14182;DHT22;7171;50.936;6.764;2023-04-22T14:57:46;18.90;99.90
14182;DHT22;7171;50.936;6.764;2023-04-22T15:00:15;18.80;99.90
14182;DHT22;7171;50.936;6.764;2023-04-22T15:02:42;18.70;99.90
14182;DHT22;7171;50.936;6.764;2023-04-22T15:05:09;18.60;99.90
14182;DHT22;7171;50.936;6.764;2023-04-22T15:07:36;18.60;99.90
14182;DHT22;7171;50.936;6.764;2023-04-22T15:10:03;18.50;99.90
14182;DHT22;7171;50.936;6.764;2023-04-22T15:12:30;18.50;99.90
14182;DHT22;7171;50.936;6.764;2023-04-22T15:14:56;18.40;99.90
14182;DHT22;7171;50.936;6.764;2023-04-22T15:17:24;18.40;99.90
14182;DHT22;7171;50.936;6.764;2023-04-22T15:19:51;18.40;99.90
14182;DHT22;7171;50.936;6.764;2023-04-22T15:22:22;18.40;99.90
14182;DHT22;7171;50.936;6.764;2023-04-22T15:24:48;18.30;99.90
14182;DHT22;7171;50.936;6.764;2023-04-22T15:27:15;18.30;99.90
14182;DHT22;7171;50.936;6.764;2023-04-22T15:29:42;18.30;99.90
14182;DHT22;7171;50.936;6.764;2023-04-22T15:32:11;18.30;99.90
14182;DHT22;7171;50.936;6.764;2023-04-22T15:34:39;18.30;99.90
14182;DHT22;7171;50.936;6.764;2023-04-22T15:37:06;18.30;99.90
14182;DHT22;7171;50.936;6.764;2023-04-22T15:39:32;18.30;99.90
14182;DHT22;7171;50.936;6.764;2023-04-22T15:41:59;18.30;99.90
14182;DHT22;7171;50.936;6.764;2023-04-22T15:44:28;18.30;99.90
14182;DHT22;7171;50.936;6.764;2023-04-22T15:46:56;18.30;99.90
14182;DHT22;7171;50.936;6.764;2023-04-22T15:49:23;18.30;99.90
14182;DHT22;7171;50.936;6.764;2023-04-22T15:51:51;18.20;99.90